Time;durP1;ratioP1;P1;durP2;ratioP2;P2;SDS_P1;SDS_P2;PMS_P1;PMS_P2;Temp;Humidity;BMP_temperature;BMP_pressure;BME280_temperature;BME280_humidity;BME280_pressure;Samples;Min_cycle;Max_cycle;Signal;HPM_P1;HPM_P2
2021/06/21 00:01:56;;;;;;;0.10;0.10;;;18.10;83.70;;;;;;5031711;28;20080;-66
2021/06/21 00:04:22;;;;;;;0.43;0.20;;;18.10;83.10;;;;;;5032052;28;20110;-66
2021/06/21 00:06:49;;;;;;;0.20;0.20;;;18.30;82.60;;;;;;5031868;28;20128;-66
2021/06/21 00:09:15;;;;;;;0.10;0.10;;;18.40;82.30;;;;;;5032094;28;20168;-66
2021/06/21 00:11:43;;;;;;;0.13;0.10;;;18.40;81.90;;;;;;5032045;28;20052;-66
2021/06/21 00:14:09;;;;;;;0.10;0.10;;;18.40;81.80;;;;;;5031331;28;20128;-66
2021/06/21 00:16:35;;;;;;;0.20;0.20;;;18.40;81.70;;;;;;5031600;28;20049;-66
2021/06/21 00:19:02;;;;;;;0.65;0.32;;;18.30;82.50;;;;;;5031722;28;20052;-66
2021/06/21 00:21:28;;;;;;;0.20;0.20;;;18.10;83.10;;;;;;5029998;28;20050;-66
2021/06/21 00:23:55;;;;;;;0.17;0.17;;;18.00;83.80;;;;;;5031405;28;20046;-66
2021/06/21 00:26:21;;;;;;;0.30;0.15;;;17.90;83.90;;;;;;5033729;28;20037;-66
2021/06/21 00:28:48;;;;;;;0.20;0.20;;;18.00;83.60;;;;;;5041648;28;20136;-66
2021/06/21 00:31:14;;;;;;;0.30;0.30;;;18.10;83.30;;;;;;5018204;28;20425;-66
2021/06/21 00:33:41;;;;;;;0.30;0.17;;;18.20;82.80;;;;;;5034735;28;20076;-66
2021/06/21 00:36:07;;;;;;;0.30;0.28;;;18.20;82.60;;;;;;5031430;28;20482;-66
2021/06/21 00:38:33;;;;;;;0.35;0.28;;;18.20;82.60;;;;;;5031510;28;20066;-66
2021/06/21 00:41:00;;;;;;;0.20;0.10;;;18.10;83.20;;;;;;5031028;28;20120;-66
2021/06/21 00:43:27;;;;;;;0.15;0.13;;;18.10;83.20;;;;;;5031151;28;20057;-66
2021/06/21 00:45:53;;;;;;;0.10;0.10;;;18.10;83.10;;;;;;5013501;28;20049;-66
2021/06/21 00:48:19;;;;;;;0.85;0.20;;;18.20;82.80;;;;;;5031661;28;20112;-66
2021/06/21 00:50:46;;;;;;;0.52;0.22;;;18.20;82.70;;;;;;5031014;28;20080;-66
2021/06/21 00:53:14;;;;;;;0.47;0.20;;;18.20;82.30;;;;;;5030636;28;20056;-66
2021/06/21 00:55:41;;;;;;;0.20;0.20;;;18.20;82.40;;;;;;5031121;28;20474;-66
2021/06/21 00:58:08;;;;;;;0.30;0.30;;;18.20;82.70;;;;;;5031269;28;20053;-66
2021/06/21 01:00:34;;;;;;;0.55;0.30;;;18.10;82.90;;;;;;5034839;28;20501;-66
2021/06/21 01:03:04;;;;;;;0.22;0.10;;;18.10;83.00;;;;;;5034963;28;20551;-66
2021/06/21 01:05:35;;;;;;;0.10;0.10;;;18.00;82.90;;;;;;5035224;28;20056;-66
2021/06/21 01:08:12;;;;;;;0.15;0.15;;;17.90;83.20;;;;;;5034884;28;21248;-66
2021/06/21 01:10:42;;;;;;;0.20;0.20;;;17.90;83.30;;;;;;5035059;28;20049;-66
2021/06/21 01:13:14;;;;;;;0.08;0.08;;;18.00;83.20;;;;;;5034882;28;20056;-66
2021/06/21 01:15:45;;;;;;;0.00;0.00;;;18.00;83.10;;;;;;5035143;28;20049;-66
2021/06/21 01:18:20;;;;;;;0.20;0.10;;;18.00;82.80;;;;;;5034657;28;20056;-66
2021/06/21 01:21:26;;;;;;;0.28;0.20;;;18.00;82.50;;;;;;5034731;28;20087;-66
2021/06/21 01:24:16;;;;;;;0.63;0.20;;;18.10;82.00;;;;;;4971140;28;20598;-66
2021/06/21 01:26:49;;;;;;;0.00;0.00;;;18.10;81.50;;;;;;4973456;28;20051;-66
2021/06/21 01:29:44;;;;;;;0.30;0.17;;;18.00;81.60;;;;;;4973258;28;20054;-66
2021/06/21 01:32:16;;;;;;;0.25;0.20;;;17.80;81.70;;;;;;4973436;28;20082;-66
2021/06/21 01:34:52;;;;;;;0.05;0.05;;;17.70;81.80;;;;;;4973467;28;20117;-66
2021/06/21 01:37:22;;;;;;;0.30;0.17;;;17.70;81.70;;;;;;4972756;28;20047;-67
2021/06/21 01:39:51;;;;;;;0.28;0.13;;;17.70;81.50;;;;;;4973284;28;20047;-66
2021/06/21 01:42:21;;;;;;;0.10;0.10;;;17.70;80.50;;;;;;4972796;28;20626;-66
2021/06/21 01:44:55;;;;;;;0.30;0.22;;;17.80;79.60;;;;;;4967514;28;20043;-66
2021/06/21 01:47:23;;;;;;;0.10;0.10;;;17.80;78.50;;;;;;4970753;28;20427;-71
2021/06/21 01:49:51;;;;;;;0.22;0.10;;;17.80;78.50;;;;;;4973109;28;20130;-66
2021/06/21 01:52:19;;;;;;;0.17;0.17;;;17.80;78.20;;;;;;4965644;28;20114;-65
2021/06/21 01:54:53;;;;;;;0.10;0.10;;;17.90;78.00;;;;;;4973075;28;20133;-65
2021/06/21 01:57:24;;;;;;;0.00;0.00;;;17.90;78.10;;;;;;4972299;28;20571;-65
2021/06/21 01:59:52;;;;;;;0.03;0.03;;;17.90;78.20;;;;;;4976043;28;20054;-66
2021/06/21 02:02:22;;;;;;;0.35;0.22;;;17.90;78.00;;;;;;5009298;28;20053;-66
2021/06/21 02:04:52;;;;;;;0.30;0.10;;;17.90;77.70;;;;;;4996680;28;20494;-66
2021/06/21 02:07:21;;;;;;;0.10;0.08;;;17.90;77.20;;;;;;5014351;28;20103;-66
2021/06/21 02:09:51;;;;;;;0.10;0.10;;;17.90;77.40;;;;;;5014572;28;20045;-66
2021/06/21 02:12:22;;;;;;;0.10;0.10;;;17.90;77.40;;;;;;4995873;28;20506;-66
2021/06/21 02:14:50;;;;;;;0.30;0.20;;;17.90;77.00;;;;;;5013938;28;20054;-66
2021/06/21 02:17:20;;;;;;;0.55;0.20;;;17.90;77.10;;;;;;5014049;28;20080;-66
2021/06/21 02:19:50;;;;;;;0.43;0.20;;;17.90;76.80;;;;;;5013729;28;20181;-66
2021/06/21 02:22:21;;;;;;;0.20;0.20;;;17.90;77.00;;;;;;5013737;28;20128;-66
2021/06/21 02:24:47;;;;;;;0.40;0.30;;;17.80;76.90;;;;;;5013966;28;20121;-66
2021/06/21 02:27:15;;;;;;;0.32;0.32;;;17.80;76.90;;;;;;5013877;28;20477;-67
2021/06/21 02:29:43;;;;;;;0.30;0.20;;;17.70;77.20;;;;;;5013805;28;20046;-66
2021/06/21 02:32:09;;;;;;;0.30;0.30;;;17.60;77.50;;;;;;5028618;28;20053;-66
2021/06/21 02:34:36;;;;;;;0.32;0.30;;;17.60;77.60;;;;;;5033691;28;20052;-66
2021/06/21 02:37:03;;;;;;;0.20;0.15;;;17.60;77.70;;;;;;5033301;28;20574;-66
2021/06/21 02:39:29;;;;;;;0.20;0.20;;;17.50;77.70;;;;;;5015550;28;20057;-66
2021/06/21 02:41:55;;;;;;;0.20;0.17;;;17.50;77.80;;;;;;5033269;28;20143;-66
2021/06/21 02:44:22;;;;;;;0.28;0.10;;;17.50;78.00;;;;;;5033291;28;20077;-66
2021/06/21 02:46:49;;;;;;;0.32;0.20;;;17.50;78.00;;;;;;5033444;28;20045;-66
2021/06/21 02:49:15;;;;;;;0.40;0.30;;;17.50;78.40;;;;;;5032779;28;20416;-67
2021/06/21 02:51:47;;;;;;;0.25;0.10;;;17.50;77.90;;;;;;5033412;28;20107;-66
2021/06/21 02:54:33;;;;;;;0.10;0.10;;;17.50;78.00;;;;;;5032999;28;20049;-66
2021/06/21 02:57:21;;;;;;;0.40;0.20;;;17.50;78.00;;;;;;5033568;28;20102;-66
2021/06/21 02:59:47;;;;;;;0.20;0.17;;;17.50;78.00;;;;;;5021249;28;20096;-66
2021/06/21 03:02:16;;;;;;;0.30;0.30;;;17.50;78.00;;;;;;5032829;28;20049;-66
2021/06/21 03:04:44;;;;;;;0.30;0.30;;;17.50;78.10;;;;;;5033155;28;20099;-66
2021/06/21 03:07:15;;;;;;;0.20;0.20;;;17.50;78.00;;;;;;5032524;28;20046;-66
2021/06/21 03:09:44;;;;;;;0.60;0.40;;;17.40;78.00;;;;;;5032913;28;20507;-66
2021/06/21 03:12:11;;;;;;;0.20;0.20;;;17.50;78.10;;;;;;5032950;28;20568;-66
2021/06/21 03:14:44;;;;;;;0.20;0.20;;;17.40;78.20;;;;;;5032478;28;20103;-67
2021/06/21 03:17:11;;;;;;;0.30;0.20;;;17.40;78.30;;;;;;5032671;28;20207;-66
2021/06/21 03:19:38;;;;;;;0.17;0.17;;;17.40;78.30;;;;;;5032000;28;20091;-67
2021/06/21 03:22:06;;;;;;;0.30;0.30;;;17.30;79.30;;;;;;5031989;28;20343;-67
2021/06/21 03:24:33;;;;;;;0.77;0.30;;;17.40;78.40;;;;;;5032174;28;20049;-67
2021/06/21 03:26:59;;;;;;;0.20;0.20;;;17.40;78.40;;;;;;5032732;28;20053;-67
2021/06/21 03:29:26;;;;;;;0.20;0.20;;;17.30;78.30;;;;;;5032218;28;20072;-66
2021/06/21 03:31:56;;;;;;;0.52;0.40;;;17.30;78.40;;;;;;5032023;28;20069;-66
2021/06/21 03:34:24;;;;;;;0.10;0.10;;;17.30;78.40;;;;;;5032307;28;20175;-66
2021/06/21 03:36:51;;;;;;;0.20;0.20;;;17.30;78.40;;;;;;5032507;28;20181;-66
2021/06/21 03:39:17;;;;;;;0.57;0.38;;;17.30;78.30;;;;;;5032404;28;20099;-66
2021/06/21 03:41:45;;;;;;;0.40;0.22;;;17.30;78.30;;;;;;5032144;28;20049;-66
2021/06/21 03:44:11;;;;;;;0.55;0.40;;;17.30;78.30;;;;;;5031930;28;20129;-66
2021/06/21 03:46:38;;;;;;;0.10;0.10;;;17.30;78.30;;;;;;5031892;28;20046;-66
2021/06/21 03:49:04;;;;;;;0.50;0.30;;;17.30;78.30;;;;;;5032197;28;20042;-66
2021/06/21 03:51:30;;;;;;;0.40;0.28;;;17.30;78.30;;;;;;5032129;28;20542;-66
2021/06/21 03:53:57;;;;;;;0.10;0.10;;;17.30;78.40;;;;;;5031955;28;20081;-66
2021/06/21 03:56:23;;;;;;;0.40;0.30;;;17.30;78.50;;;;;;5032146;28;20053;-66
2021/06/21 03:58:51;;;;;;;0.20;0.20;;;17.30;78.60;;;;;;5032204;28;20081;-66
2021/06/21 04:01:17;;;;;;;0.25;0.25;;;17.30;78.80;;;;;;5017526;28;20136;-66
2021/06/21 04:03:44;;;;;;;0.20;0.20;;;17.20;78.90;;;;;;5031905;28;20497;-66
2021/06/21 04:06:10;;;;;;;0.20;0.20;;;17.30;79.00;;;;;;5031684;28;20081;-66
2021/06/21 04:08:36;;;;;;;0.30;0.30;;;17.20;79.00;;;;;;5031715;28;20120;-67
2021/06/21 04:11:03;;;;;;;0.22;0.22;;;17.20;79.20;;;;;;5031726;28;20091;-66
2021/06/21 04:13:29;;;;;;;0.52;0.22;;;17.20;79.10;;;;;;5031670;28;20531;-66
2021/06/21 04:15:56;;;;;;;0.50;0.30;;;17.20;79.30;;;;;;5031491;28;20537;-66
2021/06/21 04:18:24;;;;;;;0.77;0.50;;;17.20;79.20;;;;;;5013549;28;20420;-66
2021/06/21 04:20:50;;;;;;;0.38;0.20;;;17.20;79.50;;;;;;5031712;28;20639;-66
2021/06/21 04:23:16;;;;;;;0.40;0.40;;;17.20;79.60;;;;;;5031555;28;20497;-66
2021/06/21 04:25:43;;;;;;;0.60;0.47;;;17.20;79.70;;;;;;5031421;28;20091;-66
2021/06/21 04:28:09;;;;;;;0.85;0.30;;;17.20;79.70;;;;;;5031347;28;20402;-66
2021/06/21 04:30:36;;;;;;;0.73;0.52;;;17.10;79.80;;;;;;5030313;28;20120;-66
2021/06/21 04:33:03;;;;;;;0.40;0.20;;;17.10;80.10;;;;;;5031455;28;20405;-67
2021/06/21 04:35:30;;;;;;;0.60;0.47;;;17.00;80.40;;;;;;5031354;28;20498;-66
2021/06/21 04:37:57;;;;;;;0.65;0.30;;;16.80;81.20;;;;;;5030918;28;20128;-66
2021/06/21 04:40:26;;;;;;;0.73;0.40;;;16.60;82.10;;;;;;5030913;28;20536;-66
2021/06/21 04:42:53;;;;;;;0.50;0.35;;;16.60;82.80;;;;;;5031212;28;20049;-66
2021/06/21 04:45:19;;;;;;;0.47;0.35;;;16.50;83.00;;;;;;5031430;28;20046;-66
2021/06/21 04:47:46;;;;;;;0.38;0.38;;;16.40;83.20;;;;;;5030971;28;20041;-66
2021/06/21 04:50:16;;;;;;;0.75;0.52;;;16.40;83.40;;;;;;5031604;28;20049;-66
2021/06/21 04:52:44;;;;;;;1.13;0.52;;;16.40;83.70;;;;;;5031198;28;20050;-66
2021/06/21 04:55:12;;;;;;;0.95;0.40;;;16.20;83.90;;;;;;5031249;28;20099;-66
2021/06/21 04:57:39;;;;;;;0.90;0.50;;;16.10;84.30;;;;;;5031251;28;20041;-66
2021/06/21 05:00:08;;;;;;;1.17;0.50;;;16.00;85.00;;;;;;5031099;28;20132;-66
2021/06/21 05:02:34;;;;;;;0.75;0.50;;;15.90;85.60;;;;;;5030971;28;21477;-66
2021/06/21 05:05:00;;;;;;;0.68;0.57;;;15.80;86.50;;;;;;5030708;28;20049;-66
2021/06/21 05:07:27;;;;;;;0.77;0.50;;;15.70;86.80;;;;;;5033052;28;20106;-66
2021/06/21 05:09:53;;;;;;;0.50;0.50;;;15.80;86.70;;;;;;5032751;28;20176;-66
2021/06/21 05:12:20;;;;;;;1.05;0.50;;;15.80;86.60;;;;;;5032339;28;20054;-66
2021/06/21 05:14:46;;;;;;;0.73;0.60;;;15.80;86.30;;;;;;5032980;28;20042;-66
2021/06/21 05:17:12;;;;;;;0.65;0.60;;;15.90;86.10;;;;;;5028336;28;20046;-66
2021/06/21 05:19:39;;;;;;;0.93;0.57;;;15.90;85.90;;;;;;5037294;28;20045;-66
2021/06/21 05:22:06;;;;;;;0.60;0.50;;;16.00;86.00;;;;;;5030860;28;20049;-66
2021/06/21 05:24:33;;;;;;;1.30;0.68;;;15.90;86.10;;;;;;5031752;28;20041;-66
2021/06/21 05:27:00;;;;;;;0.75;0.65;;;16.00;86.20;;;;;;5018953;28;20050;-66
2021/06/21 05:29:26;;;;;;;1.02;0.70;;;16.00;86.20;;;;;;5015598;28;20038;-66
2021/06/21 05:31:52;;;;;;;1.67;0.85;;;16.00;86.00;;;;;;5031313;28;20095;-65
2021/06/21 05:34:19;;;;;;;0.82;0.70;;;16.00;86.00;;;;;;5017820;28;20050;-66
2021/06/21 05:36:45;;;;;;;0.60;0.60;;;16.00;86.90;;;;;;5010965;28;20049;-65
2021/06/21 05:39:11;;;;;;;1.13;0.77;;;16.00;86.30;;;;;;5024147;28;20176;-65
2021/06/21 05:41:38;;;;;;;1.05;0.40;;;15.90;86.60;;;;;;5031929;28;20060;-66
2021/06/21 05:44:04;;;;;;;0.73;0.45;;;16.00;87.10;;;;;;5020259;28;20138;-65
2021/06/21 05:46:30;;;;;;;1.10;0.68;;;16.00;86.30;;;;;;5032169;28;20048;-65
2021/06/21 05:48:57;;;;;;;0.70;0.45;;;16.20;85.80;;;;;;5034863;28;20050;-65
2021/06/21 05:51:23;;;;;;;0.70;0.60;;;16.30;85.50;;;;;;5025706;28;20042;-65
2021/06/21 05:53:49;;;;;;;0.90;0.70;;;16.40;85.30;;;;;;5019364;28;20053;-65
2021/06/21 05:56:16;;;;;;;0.68;0.50;;;16.40;84.30;;;;;;5017555;28;20058;-65
2021/06/21 05:58:42;;;;;;;1.08;0.50;;;16.50;84.10;;;;;;5015615;28;20173;-66
2021/06/21 06:01:08;;;;;;;0.52;0.50;;;16.60;83.90;;;;;;5025433;28;20056;-66
2021/06/21 06:03:34;;;;;;;0.63;0.43;;;16.60;83.20;;;;;;5035795;28;20076;-66
2021/06/21 06:06:02;;;;;;;0.90;0.60;;;16.80;83.10;;;;;;5036564;28;20045;-65
2021/06/21 06:08:29;;;;;;;0.70;0.63;;;16.90;82.40;;;;;;5053937;28;20123;-66
2021/06/21 06:10:55;;;;;;;0.63;0.40;;;17.00;81.90;;;;;;5049099;28;20104;-66
2021/06/21 06:13:21;;;;;;;0.75;0.70;;;17.10;82.50;;;;;;5043032;28;20049;-66
2021/06/21 06:15:48;;;;;;;1.80;0.80;;;17.00;81.70;;;;;;5039459;28;20681;-66
2021/06/21 06:18:15;;;;;;;1.73;0.82;;;17.00;81.60;;;;;;5037430;28;20045;-66
2021/06/21 06:20:42;;;;;;;0.70;0.63;;;17.10;81.30;;;;;;5036281;28;20057;-66
2021/06/21 06:23:09;;;;;;;0.88;0.52;;;17.00;81.50;;;;;;5039592;28;20052;-66
2021/06/21 06:25:38;;;;;;;0.70;0.65;;;16.90;81.90;;;;;;5045054;28;20103;-66
2021/06/21 06:28:06;;;;;;;0.50;0.50;;;16.90;81.40;;;;;;5049404;28;20060;-66
2021/06/21 06:30:32;;;;;;;0.70;0.68;;;17.00;81.30;;;;;;5033870;28;20050;-66
2021/06/21 06:32:59;;;;;;;0.50;0.50;;;17.20;81.10;;;;;;5033216;28;20429;-65
2021/06/21 06:35:25;;;;;;;0.30;0.30;;;17.30;80.10;;;;;;5032986;28;20053;-65
2021/06/21 06:37:52;;;;;;;1.13;0.80;;;17.40;79.70;;;;;;5033714;28;20046;-65
2021/06/21 06:40:18;;;;;;;0.52;0.35;;;17.40;80.00;;;;;;5033953;28;20054;-66
2021/06/21 06:42:45;;;;;;;0.82;0.50;;;17.50;80.10;;;;;;5031353;28;20049;-66
2021/06/21 06:45:13;;;;;;;0.47;0.47;;;17.50;78.50;;;;;;5015882;28;20046;-66
2021/06/21 06:47:39;;;;;;;0.60;0.40;;;17.40;79.20;;;;;;5038805;28;20086;-68
2021/06/21 06:50:07;;;;;;;0.73;0.50;;;17.50;79.50;;;;;;5044462;28;20124;-64
2021/06/21 06:52:33;;;;;;;0.40;0.40;;;17.60;79.20;;;;;;5039617;28;20045;-66
2021/06/21 06:57:38;;;;;;;0.68;0.52;;;17.70;78.70;;;;;;5021039;28;20076;-64
2021/06/21 07:00:08;;;;;;;1.35;0.80;;;17.70;78.00;;;;;;5046138;28;20517;-61
2021/06/21 07:02:34;;;;;;;0.60;0.60;;;17.60;78.50;;;;;;5044221;28;20059;-60
2021/06/21 07:05:02;;;;;;;0.63;0.57;;;17.40;79.60;;;;;;5033405;28;20045;-62
2021/06/21 07:07:29;;;;;;;0.75;0.60;;;17.30;79.90;;;;;;5032478;28;20106;-61
2021/06/21 07:09:55;;;;;;;0.70;0.63;;;17.40;80.10;;;;;;5041728;28;20045;-62
2021/06/21 07:12:22;;;;;;;0.90;0.70;;;17.40;80.40;;;;;;5036656;28;20056;-61
2021/06/21 07:14:48;;;;;;;0.80;0.63;;;17.40;80.50;;;;;;5033539;28;20044;-62
2021/06/21 07:17:15;;;;;;;0.50;0.50;;;17.30;80.50;;;;;;5028218;28;20058;-62
2021/06/21 07:19:42;;;;;;;1.13;0.55;;;17.30;80.80;;;;;;5037278;28;20083;-62
2021/06/21 07:22:08;;;;;;;1.30;0.70;;;17.40;80.90;;;;;;5046998;28;20140;-62
2021/06/21 07:24:35;;;;;;;0.77;0.73;;;17.40;80.80;;;;;;5029396;28;20078;-61
2021/06/21 07:27:02;;;;;;;0.63;0.63;;;17.40;81.00;;;;;;5043486;28;20045;-60
2021/06/21 07:29:29;;;;;;;0.35;0.35;;;17.30;81.30;;;;;;5042264;28;20515;-63
2021/06/21 07:31:55;;;;;;;0.55;0.50;;;17.40;81.20;;;;;;5024151;28;20053;-63
2021/06/21 07:34:22;;;;;;;1.05;0.60;;;17.50;81.10;;;;;;5029340;28;20418;-61
2021/06/21 07:36:48;;;;;;;0.43;0.43;;;17.50;79.40;;;;;;5034668;28;20843;-67
2021/06/21 07:39:15;;;;;;;0.40;0.40;;;17.50;79.70;;;;;;5016000;28;20048;-61
2021/06/21 07:41:42;;;;;;;1.10;0.55;;;17.50;79.30;;;;;;5027770;28;20069;-66
2021/06/21 07:44:08;;;;;;;0.47;0.47;;;17.50;80.00;;;;;;5034490;28;20128;-66
2021/06/21 07:46:35;;;;;;;0.43;0.40;;;17.60;80.10;;;;;;5033487;28;20116;-66
2021/06/21 07:49:02;;;;;;;0.73;0.50;;;17.70;80.00;;;;;;5038834;28;20183;-62
2021/06/21 07:51:30;;;;;;;0.95;0.63;;;17.90;79.80;;;;;;5032882;28;20053;-63
2021/06/21 07:53:57;;;;;;;0.60;0.50;;;17.90;78.80;;;;;;5037114;28;20054;-62
2021/06/21 07:56:24;;;;;;;0.65;0.40;;;17.90;78.50;;;;;;5034783;28;20512;-62
2021/06/21 07:58:51;;;;;;;0.43;0.35;;;18.00;79.00;;;;;;5042032;28;20049;-62
2021/06/21 08:01:17;;;;;;;0.50;0.50;;;18.20;79.10;;;;;;5037357;28;20053;-62
2021/06/21 08:03:44;;;;;;;0.55;0.40;;;18.50;78.30;;;;;;5043444;28;20127;-62
2021/06/21 08:06:11;;;;;;;0.50;0.50;;;18.80;77.30;;;;;;5035009;28;20219;-62
2021/06/21 08:08:39;;;;;;;0.47;0.45;;;19.00;76.50;;;;;;5035102;28;20523;-62
2021/06/21 08:11:06;;;;;;;0.35;0.35;;;19.20;76.10;;;;;;5038654;28;20049;-62
2021/06/21 08:13:32;;;;;;;0.40;0.40;;;19.50;75.70;;;;;;5034520;28;20049;-61
2021/06/21 08:15:59;;;;;;;0.43;0.43;;;19.80;73.40;;;;;;5041566;28;20045;-62
2021/06/21 08:18:25;;;;;;;0.45;0.45;;;19.80;71.40;;;;;;5039361;28;20048;-62
2021/06/21 08:20:52;;;;;;;0.20;0.20;;;19.70;70.90;;;;;;5035217;28;20054;-62
2021/06/21 08:23:19;;;;;;;0.43;0.40;;;19.80;72.20;;;;;;5035005;28;20049;-62
2021/06/21 08:25:46;;;;;;;0.30;0.30;;;20.00;72.30;;;;;;5040401;28;20192;-62
2021/06/21 08:28:12;;;;;;;0.30;0.20;;;20.10;71.60;;;;;;5033430;28;20128;-62
2021/06/21 08:30:40;;;;;;;0.25;0.25;;;20.20;70.50;;;;;;5032129;28;20049;-62
2021/06/21 08:33:06;;;;;;;0.43;0.30;;;20.20;70.30;;;;;;5031724;28;20053;-62
2021/06/21 08:35:33;;;;;;;0.20;0.20;;;20.20;70.30;;;;;;5045167;28;20045;-63
2021/06/21 08:38:00;;;;;;;0.25;0.20;;;20.20;70.30;;;;;;5040370;28;20432;-63
2021/06/21 08:40:27;;;;;;;0.20;0.20;;;20.20;70.00;;;;;;5047196;28;20103;-62
2021/06/21 08:42:54;;;;;;;0.10;0.10;;;20.10;69.20;;;;;;5030517;28;20123;-62
2021/06/21 08:45:20;;;;;;;0.30;0.30;;;20.20;69.40;;;;;;5047696;28;20078;-62
2021/06/21 08:47:47;;;;;;;0.20;0.20;;;20.20;68.40;;;;;;5039322;28;20041;-62
2021/06/21 08:50:17;;;;;;;0.47;0.40;;;20.20;68.80;;;;;;5047728;28;20120;-62
2021/06/21 08:52:44;;;;;;;1.23;0.32;;;20.30;68.00;;;;;;5032577;28;20049;-62
2021/06/21 08:55:11;;;;;;;0.40;0.25;;;20.40;68.20;;;;;;5040859;28;20172;-62
2021/06/21 08:57:41;;;;;;;0.10;0.10;;;20.50;67.60;;;;;;5029922;28;20126;-63
2021/06/21 09:00:09;;;;;;;0.40;0.40;;;20.50;66.50;;;;;;5037451;28;20146;-63
2021/06/21 09:02:36;;;;;;;0.20;0.20;;;20.60;65.70;;;;;;5041948;28;20544;-65
2021/06/21 09:05:06;;;;;;;0.20;0.20;;;20.70;65.50;;;;;;5044797;28;20045;-65
2021/06/21 09:07:33;;;;;;;0.40;0.20;;;20.80;64.70;;;;;;5030902;28;20497;-64
2021/06/21 09:10:04;;;;;;;0.10;0.10;;;21.20;62.70;;;;;;5037272;28;20484;-62
2021/06/21 09:12:32;;;;;;;0.20;0.20;;;21.30;61.10;;;;;;5047564;28;20102;-62
2021/06/21 09:15:00;;;;;;;0.20;0.20;;;21.50;61.30;;;;;;5038346;28;20091;-62
2021/06/21 09:17:30;;;;;;;0.15;0.15;;;21.70;61.70;;;;;;5045583;28;20155;-62
2021/06/21 09:19:59;;;;;;;0.85;0.20;;;21.90;59.60;;;;;;5033215;28;20056;-62
2021/06/21 09:22:38;;;;;;;0.28;0.20;;;22.10;57.90;;;;;;5035230;28;20084;-62
2021/06/21 09:25:16;;;;;;;0.20;0.20;;;22.00;58.20;;;;;;5036770;28;20130;-62
2021/06/21 09:27:54;;;;;;;0.20;0.20;;;21.80;57.70;;;;;;5040464;28;20048;-62
2021/06/21 09:30:22;;;;;;;0.30;0.30;;;21.20;59.40;;;;;;5031302;28;20117;-62
2021/06/21 09:32:52;;;;;;;0.73;0.45;;;21.10;59.50;;;;;;5026864;28;20068;-62
2021/06/21 09:35:33;;;;;;;0.22;0.20;;;20.90;59.40;;;;;;5021573;28;20103;-62
2021/06/21 09:38:10;;;;;;;0.03;0.00;;;20.70;60.10;;;;;;5017184;28;20143;-62
2021/06/21 09:40:40;;;;;;;0.10;0.10;;;20.80;61.10;;;;;;5039220;28;20182;-62
2021/06/21 09:43:29;;;;;;;0.30;0.30;;;21.00;60.70;;;;;;5044276;28;20626;-62
2021/06/21 09:46:15;;;;;;;0.10;0.10;;;21.10;60.30;;;;;;5033773;28;20037;-61
2021/06/21 09:48:53;;;;;;;0.10;0.10;;;21.20;60.30;;;;;;5032466;28;20103;-65
2021/06/21 09:51:30;;;;;;;0.00;0.00;;;21.30;60.30;;;;;;5027367;28;20048;-63
2021/06/21 09:54:06;;;;;;;0.10;0.10;;;21.40;58.70;;;;;;5041373;28;20120;-62
2021/06/21 09:56:52;;;;;;;0.10;0.10;;;21.30;59.50;;;;;;5036539;28;20424;-63
2021/06/21 09:59:29;;;;;;;0.10;0.10;;;21.40;60.30;;;;;;5043137;28;20053;-63
2021/06/21 10:02:05;;;;;;;0.20;0.20;;;21.40;60.10;;;;;;5039828;28;20053;-63
2021/06/21 10:04:32;;;;;;;0.10;0.10;;;21.60;59.30;;;;;;5042704;28;20041;-63
2021/06/21 10:06:58;;;;;;;0.00;0.00;;;21.80;59.80;;;;;;5033634;28;20132;-63
2021/06/21 10:09:26;;;;;;;0.05;0.05;;;22.10;59.00;;;;;;5021015;28;20492;-63
2021/06/21 10:11:52;;;;;;;0.20;0.20;;;22.30;58.10;;;;;;5034151;28;20045;-63
2021/06/21 10:14:21;;;;;;;0.10;0.10;;;22.60;57.50;;;;;;5035846;28;20057;-63
2021/06/21 10:16:49;;;;;;;0.10;0.10;;;22.90;57.40;;;;;;5040398;28;20076;-62
2021/06/21 10:19:19;;;;;;;0.00;0.00;;;23.10;57.00;;;;;;5047040;28;20152;-62
2021/06/21 10:21:48;;;;;;;0.00;0.00;;;23.20;56.90;;;;;;5050737;28;20090;-62
2021/06/21 10:24:15;;;;;;;0.10;0.00;;;23.40;56.70;;;;;;5035256;28;20042;-62
2021/06/21 10:26:50;;;;;;;0.00;0.00;;;23.60;55.30;;;;;;5041191;28;20048;-65
2021/06/21 10:29:19;;;;;;;0.10;0.10;;;23.70;53.30;;;;;;5035401;28;20098;-65
2021/06/21 10:31:47;;;;;;;0.03;0.00;;;23.60;51.60;;;;;;5039877;28;20150;-65
2021/06/21 10:34:16;;;;;;;0.00;0.00;;;23.40;53.40;;;;;;5051688;28;20531;-65
2021/06/21 10:36:46;;;;;;;0.10;0.10;;;23.30;53.70;;;;;;5017157;28;20041;-65
2021/06/21 10:39:26;;;;;;;0.17;0.10;;;23.10;54.70;;;;;;5003413;28;20176;-65
2021/06/21 10:42:04;;;;;;;0.40;0.10;;;23.00;54.30;;;;;;5019164;28;20064;-65
2021/06/21 10:44:34;;;;;;;0.10;0.10;;;22.90;54.60;;;;;;5015788;28;20474;-65
2021/06/21 10:47:38;;;;;;;0.10;0.10;;;22.90;54.80;;;;;;5019303;28;20149;-65
2021/06/21 10:50:17;;;;;;;0.03;0.03;;;22.90;55.10;;;;;;5019947;28;20121;-64
2021/06/21 10:52:47;;;;;;;0.10;0.10;;;22.80;55.70;;;;;;5022389;28;20050;-65
2021/06/21 10:55:26;;;;;;;0.08;0.08;;;22.80;56.00;;;;;;5015205;28;20124;-64
2021/06/21 10:57:57;;;;;;;0.00;0.00;;;22.80;55.10;;;;;;5015321;28;20456;-65
2021/06/21 11:00:42;;;;;;;0.10;0.10;;;22.80;55.90;;;;;;5015492;28;20095;-64
2021/06/21 11:06:00;;;;;;;0.00;0.00;;;22.90;56.10;;;;;;5022962;28;20533;-64
2021/06/21 11:08:50;;;;;;;0.00;0.00;;;22.90;55.40;;;;;;5016103;28;20505;-64
2021/06/21 11:11:35;;;;;;;0.00;0.00;;;22.90;55.90;;;;;;5020990;28;20136;-64
2021/06/21 11:14:15;;;;;;;0.00;0.00;;;22.90;55.60;;;;;;5016658;28;20584;-65
2021/06/21 11:16:44;;;;;;;0.00;0.00;;;22.80;54.80;;;;;;5013256;28;20049;-64
2021/06/21 11:19:13;;;;;;;0.10;0.10;;;22.80;54.20;;;;;;5012620;28;20054;-64
2021/06/21 11:21:46;;;;;;;0.10;0.10;;;22.70;54.00;;;;;;5013146;28;20049;-64
2021/06/21 11:24:52;;;;;;;0.10;0.10;;;22.60;54.10;;;;;;5016421;28;20050;-64
2021/06/21 11:27:21;;;;;;;0.25;0.10;;;22.40;54.80;;;;;;4966632;28;20126;-65
2021/06/21 11:29:54;;;;;;;0.00;0.00;;;22.30;55.00;;;;;;4973701;28;20082;-65
2021/06/21 11:32:21;;;;;;;0.10;0.10;;;22.20;55.70;;;;;;4965784;28;20057;-65
2021/06/21 11:34:55;;;;;;;0.10;0.10;;;22.10;56.50;;;;;;4969421;28;20137;-63
2021/06/21 11:37:47;;;;;;;0.00;0.00;;;22.10;56.80;;;;;;4969595;28;20050;-63
2021/06/21 11:40:22;;;;;;;0.13;0.10;;;22.00;57.00;;;;;;4968985;28;20101;-62
2021/06/21 11:42:57;;;;;;;0.05;0.05;;;21.90;57.20;;;;;;4965646;28;20137;-62
2021/06/21 11:45:54;;;;;;;0.00;0.00;;;21.90;57.70;;;;;;4968611;28;20133;-63
2021/06/21 11:48:27;;;;;;;0.10;0.10;;;21.80;58.10;;;;;;4956905;28;20090;-62
2021/06/21 11:50:55;;;;;;;0.03;0.03;;;21.80;58.50;;;;;;4964742;28;20126;-64
2021/06/21 11:53:24;;;;;;;0.00;0.00;;;21.80;58.90;;;;;;4969806;28;20050;-62
2021/06/21 11:55:51;;;;;;;0.00;0.00;;;21.80;59.10;;;;;;4966898;28;20093;-63
2021/06/21 11:58:32;;;;;;;0.00;0.00;;;21.80;59.30;;;;;;5006391;28;20050;-62
2021/06/21 12:01:00;;;;;;;0.20;0.00;;;21.70;60.00;;;;;;5029580;28;20049;-62
2021/06/21 12:03:38;;;;;;;0.20;0.10;;;21.50;61.90;;;;;;5029369;28;20049;-63
2021/06/21 12:06:05;;;;;;;0.15;0.00;;;21.30;65.20;;;;;;5018636;28;20037;-63
2021/06/21 12:08:36;;;;;;;0.10;0.00;;;21.00;67.40;;;;;;5029712;28;20053;-63
2021/06/21 12:11:17;;;;;;;0.00;0.00;;;20.80;67.80;;;;;;5030319;28;20132;-62
2021/06/21 12:13:54;;;;;;;0.00;0.00;;;20.70;69.40;;;;;;5028892;28;20052;-62
2021/06/21 12:16:20;;;;;;;0.00;0.00;;;20.60;69.60;;;;;;5030035;28;20132;-62
2021/06/21 12:18:54;;;;;;;0.10;0.10;;;20.50;70.10;;;;;;5030070;28;20088;-62
2021/06/21 12:21:36;;;;;;;0.00;0.00;;;20.40;70.10;;;;;;5017081;28;20045;-62
2021/06/21 12:24:22;;;;;;;0.52;0.20;;;20.30;67.70;;;;;;5030579;28;20334;-62
2021/06/21 12:27:02;;;;;;;0.45;0.40;;;20.10;70.00;;;;;;5029162;28;20041;-62
2021/06/21 12:29:39;;;;;;;0.10;0.10;;;20.00;73.60;;;;;;5025838;28;20049;-62
2021/06/21 12:32:11;;;;;;;0.43;0.10;;;19.80;72.80;;;;;;5026319;28;20057;-62
2021/06/21 12:34:47;;;;;;;0.10;0.05;;;19.60;72.30;;;;;;5027700;28;20052;-62
2021/06/21 12:37:27;;;;;;;0.32;0.10;;;19.50;74.70;;;;;;5025794;28;20173;-61
2021/06/21 12:39:55;;;;;;;0.10;0.10;;;19.40;74.90;;;;;;5030025;28;20128;-62
2021/06/21 12:42:22;;;;;;;0.20;0.10;;;19.40;74.30;;;;;;5025735;28;20527;-62
2021/06/21 12:44:49;;;;;;;0.05;0.05;;;19.40;75.40;;;;;;5020538;28;20054;-62
2021/06/21 12:47:27;;;;;;;0.03;0.03;;;19.20;73.40;;;;;;5021724;28;20128;-64
2021/06/21 12:50:03;;;;;;;0.00;0.00;;;19.30;73.20;;;;;;5030347;28;20216;-63
2021/06/21 12:52:30;;;;;;;0.10;0.10;;;19.50;73.10;;;;;;5027271;28;20050;-63
2021/06/21 12:55:05;;;;;;;0.00;0.00;;;19.70;73.60;;;;;;5032170;28;20132;-62
2021/06/21 12:57:46;;;;;;;0.05;0.05;;;19.90;73.80;;;;;;5031214;28;20129;-62
2021/06/21 13:00:14;;;;;;;0.00;0.00;;;20.00;74.10;;;;;;5041208;28;20512;-62
2021/06/21 13:02:40;;;;;;;0.17;0.10;;;20.20;74.90;;;;;;5021759;28;20046;-62
2021/06/21 13:05:10;;;;;;;0.00;0.00;;;20.20;72.90;;;;;;5038957;28;20060;-62
2021/06/21 13:07:39;;;;;;;0.10;0.05;;;20.20;71.70;;;;;;5042365;28;20127;-62